Time;durP1;ratioP1;P1;durP2;ratioP2;P2;SDS_P1;SDS_P2;PMS_P1;PMS_P2;Temp;Humidity;BMP_temperature;BMP_pressure;BME280_temperature;BME280_humidity;BME280_pressure;Samples;Min_cycle;Max_cycle;Signal;HPM_P1;HPM_P2
2023/08/30 00:00:21;;;;;;;8.80;7.32;;;;;;;;;;5026432;28;20261;-70
2023/08/30 00:02:47;;;;;;;7.57;6.88;;;;;;;;;;5026334;28;20230;-69
2023/08/30 00:05:14;;;;;;;7.68;6.60;;;;;;;;;;5027584;28;20196;-70
2023/08/30 00:07:40;;;;;;;7.82;7.13;;;;;;;;;;5026414;28;20203;-69
2023/08/30 00:10:07;;;;;;;7.90;6.53;;;;;;;;;;5026794;28;20751;-69
2023/08/30 00:12:35;;;;;;;7.28;6.60;;;;;;;;;;5026689;28;20669;-70
2023/08/30 00:15:02;;;;;;;7.03;6.43;;;;;;;;;;5026851;28;20682;-70
2023/08/30 00:17:28;;;;;;;6.47;5.97;;;;;;;;;;5026154;28;20318;-70
2023/08/30 00:19:55;;;;;;;7.95;6.45;;;;;;;;;;5027473;28;20232;-70
2023/08/30 00:22:22;;;;;;;6.72;6.05;;;;;;;;;;5026412;28;20259;-70
2023/08/30 00:24:48;;;;;;;7.15;6.10;;;;;;;;;;5026886;28;20208;-69
2023/08/30 00:27:15;;;;;;;6.90;6.32;;;;;;;;;;5026032;28;20231;-69
2023/08/30 00:29:43;;;;;;;6.55;6.13;;;;;;;;;;5025394;28;20199;-70
2023/08/30 00:32:09;;;;;;;6.85;6.40;;;;;;;;;;5026386;28;20212;-70
2023/08/30 00:34:36;;;;;;;6.95;6.13;;;;;;;;;;5025966;28;20751;-69
2023/08/30 00:37:02;;;;;;;9.77;6.90;;;;;;;;;;5025936;28;20228;-69
2023/08/30 00:39:28;;;;;;;8.93;6.07;;;;;;;;;;5026533;28;20302;-69
2023/08/30 00:41:55;;;;;;;7.40;6.80;;;;;;;;;;5026970;28;20192;-70
2023/08/30 00:44:21;;;;;;;8.10;6.10;;;;;;;;;;5026155;28;20266;-70
2023/08/30 00:46:49;;;;;;;8.82;5.57;;;;;;;;;;5025885;28;20225;-70
2023/08/30 00:49:16;;;;;;;6.90;6.25;;;;;;;;;;5026315;28;20199;-70
2023/08/30 00:51:42;;;;;;;8.55;7.05;;;;;;;;;;5026342;28;20281;-70
2023/08/30 00:54:09;;;;;;;6.70;6.10;;;;;;;;;;5025872;28;20242;-70
2023/08/30 00:56:35;;;;;;;6.13;5.63;;;;;;;;;;5025769;28;20677;-70
2023/08/30 00:59:02;;;;;;;7.72;5.75;;;;;;;;;;5025884;28;20296;-71
2023/08/30 01:01:28;;;;;;;8.00;5.95;;;;;;;;;;5026285;28;20211;-70
2023/08/30 01:03:56;;;;;;;6.32;5.85;;;;;;;;;;5025065;28;20199;-70
2023/08/30 01:06:23;;;;;;;6.13;5.53;;;;;;;;;;5026121;28;20204;-70
2023/08/30 01:08:51;;;;;;;9.55;5.97;;;;;;;;;;5023808;28;20285;-71
2023/08/30 01:11:24;;;;;;;6.65;5.97;;;;;;;;;;5024592;28;20203;-70
2023/08/30 01:13:51;;;;;;;7.00;6.32;;;;;;;;;;5023658;28;20207;-70
2023/08/30 01:16:20;;;;;;;6.35;5.30;;;;;;;;;;5023766;28;20200;-70
2023/08/30 01:18:47;;;;;;;5.80;5.30;;;;;;;;;;5023888;28;20332;-70
2023/08/30 01:21:21;;;;;;;7.95;5.25;;;;;;;;;;5024193;28;20697;-70
2023/08/30 01:23:49;;;;;;;6.47;5.22;;;;;;;;;;5024080;28;20206;-69
2023/08/30 01:26:20;;;;;;;7.07;5.20;;;;;;;;;;5023761;28;20200;-70
2023/08/30 01:28:49;;;;;;;6.47;5.90;;;;;;;;;;5023819;28;20223;-70
2023/08/30 01:31:16;;;;;;;6.05;5.45;;;;;;;;;;5025635;28;20693;-69
2023/08/30 01:33:43;;;;;;;5.75;5.22;;;;;;;;;;5023801;28;20740;-69
2023/08/30 01:36:09;;;;;;;7.65;5.82;;;;;;;;;;5025496;28;20265;-69
2023/08/30 01:38:36;;;;;;;9.23;5.60;;;;;;;;;;5025832;28;20804;-69
2023/08/30 01:41:02;;;;;;;6.80;6.20;;;;;;;;;;5025808;28;20223;-69
2023/08/30 01:43:30;;;;;;;6.25;5.65;;;;;;;;;;5025966;28;20243;-69
2023/08/30 01:45:58;;;;;;;8.30;5.72;;;;;;;;;;5025236;28;20203;-70
2023/08/30 01:48:25;;;;;;;6.13;5.55;;;;;;;;;;5025042;28;20246;-70
2023/08/30 01:50:51;;;;;;;6.75;5.97;;;;;;;;;;5025551;28;20223;-70
2023/08/30 01:53:18;;;;;;;8.63;5.97;;;;;;;;;;5025555;28;20339;-70
2023/08/30 01:55:44;;;;;;;5.97;5.38;;;;;;;;;;5025460;28;20195;-70
2023/08/30 01:58:11;;;;;;;6.65;5.65;;;;;;;;;;5025242;28;20254;-70
2023/08/30 02:00:37;;;;;;;7.20;5.43;;;;;;;;;;5025686;28;20231;-70
2023/08/30 02:03:09;;;;;;;6.03;5.53;;;;;;;;;;5025432;28;20258;-70
2023/08/30 02:05:37;;;;;;;10.15;6.07;;;;;;;;;;5024527;28;20590;-69
2023/08/30 02:08:06;;;;;;;6.25;5.78;;;;;;;;;;5025272;28;20223;-70
2023/08/30 02:10:35;;;;;;;6.47;5.88;;;;;;;;;;5026362;28;20212;-70
2023/08/30 02:13:02;;;;;;;6.85;6.22;;;;;;;;;;5029267;28;20613;-70
2023/08/30 02:15:31;;;;;;;8.57;6.13;;;;;;;;;;5028608;28;20208;-70
2023/08/30 02:17:58;;;;;;;7.40;6.22;;;;;;;;;;5028858;28;20262;-70
2023/08/30 02:20:26;;;;;;;7.10;6.18;;;;;;;;;;5027462;28;20262;-69
2023/08/30 02:22:52;;;;;;;6.53;5.88;;;;;;;;;;5028574;28;20223;-70
2023/08/30 02:25:23;;;;;;;6.78;5.95;;;;;;;;;;5028882;28;20227;-70
2023/08/30 02:27:50;;;;;;;6.97;6.22;;;;;;;;;;5028600;28;20576;-69
2023/08/30 02:30:16;;;;;;;7.93;7.20;;;;;;;;;;5029097;28;20553;-69
2023/08/30 02:32:43;;;;;;;7.55;6.32;;;;;;;;;;5028110;28;20235;-70
2023/08/30 02:35:09;;;;;;;9.60;6.88;;;;;;;;;;5028984;28;20238;-70
2023/08/30 02:37:37;;;;;;;6.75;5.97;;;;;;;;;;5028239;28;20258;-69
2023/08/30 02:40:04;;;;;;;7.28;6.13;;;;;;;;;;5029249;28;20688;-70
2023/08/30 02:42:30;;;;;;;9.65;6.38;;;;;;;;;;5028404;28;20223;-69
2023/08/30 02:44:56;;;;;;;7.78;6.38;;;;;;;;;;5028274;28;20628;-69
2023/08/30 02:47:23;;;;;;;6.97;6.43;;;;;;;;;;5027785;28;21069;-69
2023/08/30 02:49:49;;;;;;;10.82;6.47;;;;;;;;;;5028479;28;20228;-69
2023/08/30 02:52:16;;;;;;;9.25;6.68;;;;;;;;;;5027703;28;20251;-69
2023/08/30 02:54:44;;;;;;;16.95;6.72;;;;;;;;;;5028773;28;20231;-70
2023/08/30 02:57:10;;;;;;;8.20;6.72;;;;;;;;;;5028340;28;20642;-69
2023/08/30 02:59:37;;;;;;;11.35;6.95;;;;;;;;;;5028614;28;20223;-69
2023/08/30 03:02:03;;;;;;;7.88;6.50;;;;;;;;;;5027983;28;20273;-69
2023/08/30 03:04:30;;;;;;;7.28;6.47;;;;;;;;;;5029021;28;20295;-69
2023/08/30 03:06:56;;;;;;;8.73;6.25;;;;;;;;;;5029026;28;20336;-69
2023/08/30 03:09:22;;;;;;;7.13;6.38;;;;;;;;;;5026400;28;20659;-69
2023/08/30 03:11:50;;;;;;;7.03;6.13;;;;;;;;;;5026298;28;20246;-70
2023/08/30 03:14:17;;;;;;;8.07;6.35;;;;;;;;;;5026444;28;20775;-70
2023/08/30 03:16:45;;;;;;;7.93;5.97;;;;;;;;;;5026284;28;20819;-70
2023/08/30 03:19:11;;;;;;;8.45;5.55;;;;;;;;;;5026395;28;20701;-70
2023/08/30 03:21:37;;;;;;;5.95;5.45;;;;;;;;;;5025888;28;20215;-69
2023/08/30 03:24:04;;;;;;;6.13;5.38;;;;;;;;;;5025822;28;20204;-70
2023/08/30 03:26:31;;;;;;;6.75;5.60;;;;;;;;;;5026110;28;20211;-69
2023/08/30 03:28:58;;;;;;;5.93;5.40;;;;;;;;;;5026616;28;20196;-69
2023/08/30 03:31:25;;;;;;;10.38;5.13;;;;;;;;;;5026511;28;20297;-69
2023/08/30 03:33:51;;;;;;;9.75;6.00;;;;;;;;;;5027504;28;20204;-69
2023/08/30 03:36:18;;;;;;;8.40;5.63;;;;;;;;;;5027660;28;20204;-69
2023/08/30 03:38:45;;;;;;;5.30;4.80;;;;;;;;;;5028262;28;20259;-69
2023/08/30 03:41:12;;;;;;;7.05;6.00;;;;;;;;;;5027385;28;20205;-69
2023/08/30 03:43:38;;;;;;;6.40;5.03;;;;;;;;;;5027398;28;20594;-69
2023/08/30 03:46:06;;;;;;;10.07;5.88;;;;;;;;;;5027541;28;20208;-68
2023/08/30 03:48:33;;;;;;;7.53;4.97;;;;;;;;;;5027632;28;20258;-69
2023/08/30 03:50:59;;;;;;;6.18;5.15;;;;;;;;;;5027388;28;20239;-69
2023/08/30 03:53:26;;;;;;;10.27;6.00;;;;;;;;;;5026820;28;20287;-69
2023/08/30 03:55:52;;;;;;;16.25;5.90;;;;;;;;;;5026768;28;20244;-69
2023/08/30 03:58:20;;;;;;;20.63;7.05;;;;;;;;;;5027305;28;20208;-70
2023/08/30 04:00:46;;;;;;;14.60;10.02;;;;;;;;;;5027880;28;20285;-69
2023/08/30 04:03:15;;;;;;;23.60;16.23;;;;;;;;;;5027024;28;20265;-69
2023/08/30 04:05:42;;;;;;;10.57;8.90;;;;;;;;;;5026420;28;20270;-69
2023/08/30 04:08:09;;;;;;;10.02;6.78;;;;;;;;;;5027023;28;20215;-70
2023/08/30 04:10:35;;;;;;;11.23;5.93;;;;;;;;;;5027066;28;20261;-70
2023/08/30 04:13:02;;;;;;;7.72;5.63;;;;;;;;;;5026965;28;20227;-70
2023/08/30 04:15:28;;;;;;;6.50;5.82;;;;;;;;;;5026615;28;20662;-69
2023/08/30 04:17:55;;;;;;;9.55;5.53;;;;;;;;;;5027578;28;20203;-71
2023/08/30 04:20:22;;;;;;;7.63;6.28;;;;;;;;;;5026740;28;20220;-69
2023/08/30 04:22:49;;;;;;;6.63;5.97;;;;;;;;;;5026343;28;20246;-70
2023/08/30 04:25:15;;;;;;;13.05;9.68;;;;;;;;;;5026811;28;20219;-70
2023/08/30 04:27:42;;;;;;;15.60;11.80;;;;;;;;;;5026278;28;20208;-70
2023/08/30 04:30:09;;;;;;;8.68;5.57;;;;;;;;;;5026648;28;20590;-70
2023/08/30 04:32:35;;;;;;;5.95;4.88;;;;;;;;;;5025200;28;20211;-70
2023/08/30 04:35:02;;;;;;;11.73;5.93;;;;;;;;;;5027286;28;20655;-70
2023/08/30 04:37:32;;;;;;;9.45;5.43;;;;;;;;;;5026501;28;20204;-70
2023/08/30 04:39:58;;;;;;;7.78;5.35;;;;;;;;;;5026642;28;20224;-70
2023/08/30 04:42:25;;;;;;;8.48;4.05;;;;;;;;;;5025246;28;20774;-69
2023/08/30 04:44:54;;;;;;;7.05;4.63;;;;;;;;;;5026539;28;20231;-69
2023/08/30 04:47:20;;;;;;;6.13;4.90;;;;;;;;;;5024999;28;20242;-69
2023/08/30 04:49:50;;;;;;;6.53;4.45;;;;;;;;;;5026801;28;20250;-69
2023/08/30 04:52:17;;;;;;;6.57;4.57;;;;;;;;;;5025649;28;20657;-69
2023/08/30 04:54:45;;;;;;;9.80;4.72;;;;;;;;;;5026270;28;20285;-69
2023/08/30 04:57:14;;;;;;;7.43;4.05;;;;;;;;;;5025491;28;20815;-68
2023/08/30 04:59:40;;;;;;;4.57;4.13;;;;;;;;;;5026145;28;20251;-69
2023/08/30 05:02:07;;;;;;;4.43;4.00;;;;;;;;;;5025623;28;20320;-69
2023/08/30 05:04:33;;;;;;;4.32;3.83;;;;;;;;;;5026305;28;20205;-69
2023/08/30 05:06:59;;;;;;;5.45;3.83;;;;;;;;;;5026180;28;20226;-70
2023/08/30 05:09:26;;;;;;;6.47;4.63;;;;;;;;;;5023631;28;20532;-69
2023/08/30 05:11:54;;;;;;;7.15;4.18;;;;;;;;;;5024280;28;20218;-68
2023/08/30 05:14:21;;;;;;;5.07;3.67;;;;;;;;;;5023617;28;20200;-68
2023/08/30 05:16:47;;;;;;;4.85;3.60;;;;;;;;;;5024522;28;20200;-68
2023/08/30 05:19:14;;;;;;;4.50;4.05;;;;;;;;;;5024146;28;20251;-68
2023/08/30 05:21:40;;;;;;;6.13;3.63;;;;;;;;;;5023319;28;20203;-69
2023/08/30 05:24:07;;;;;;;9.02;6.05;;;;;;;;;;5024050;28;20218;-68
2023/08/30 05:26:33;;;;;;;6.45;4.10;;;;;;;;;;5024061;28;20207;-69
2023/08/30 05:29:01;;;;;;;10.82;4.70;;;;;;;;;;5024529;28;20269;-69
2023/08/30 05:31:28;;;;;;;7.07;3.88;;;;;;;;;;5025350;28;20578;-68
2023/08/30 05:33:54;;;;;;;6.43;3.85;;;;;;;;;;5025747;28;20203;-68
2023/08/30 05:36:20;;;;;;;7.10;4.38;;;;;;;;;;5024635;28;20227;-69
2023/08/30 05:38:47;;;;;;;5.57;3.83;;;;;;;;;;5025412;28;20207;-68
2023/08/30 05:41:13;;;;;;;3.92;3.55;;;;;;;;;;5026143;28;20200;-71
2023/08/30 05:43:40;;;;;;;6.43;3.88;;;;;;;;;;5025410;28;20204;-70
2023/08/30 05:46:14;;;;;;;4.75;3.45;;;;;;;;;;5026811;28;20262;-70
2023/08/30 05:48:41;;;;;;;6.57;4.05;;;;;;;;;;5029184;28;20241;-69
2023/08/30 05:51:07;;;;;;;4.55;3.42;;;;;;;;;;5029541;28;20203;-69
2023/08/30 05:53:33;;;;;;;6.85;4.20;;;;;;;;;;5029331;28;20278;-71
2023/08/30 05:56:00;;;;;;;6.43;3.33;;;;;;;;;;5029404;28;20262;-69
2023/08/30 05:58:26;;;;;;;6.70;4.15;;;;;;;;;;5029278;28;20255;-70
2023/08/30 06:00:53;;;;;;;5.03;3.65;;;;;;;;;;5029564;28;20255;-69
2023/08/30 06:03:20;;;;;;;6.70;3.58;;;;;;;;;;5029061;28;20282;-69
2023/08/30 06:05:48;;;;;;;3.70;3.35;;;;;;;;;;5029440;28;20232;-69
2023/08/30 06:08:15;;;;;;;6.55;3.42;;;;;;;;;;5029219;28;20313;-69
2023/08/30 06:10:41;;;;;;;4.05;3.65;;;;;;;27.53;nan;94302.06;5029209;28;20257;-68
2023/08/30 06:13:08;;;;;;;4.25;3.83;;;;;;;;;;5029113;28;20636;-70
2023/08/30 06:15:37;;;;;;;5.25;3.80;;;;;;;;;;5029540;28;20243;-69
2023/08/30 06:18:04;;;;;;;6.72;3.75;;;;;;;;;;5028753;28;20665;-69
2023/08/30 06:20:31;;;;;;;7.43;4.28;;;;;;;;;;5029291;28;20223;-68
2023/08/30 06:22:58;;;;;;;5.28;3.75;;;;;;;;;;5028439;28;20200;-70
2023/08/30 06:25:25;;;;;;;3.60;3.30;;;;;;;;;;5029310;28;20211;-69
2023/08/30 06:27:58;;;;;;;4.38;3.58;;;;;;;;;;5028710;28;20675;-69
2023/08/30 06:30:25;;;;;;;4.10;3.70;;;;;;;;;;5028889;28;20686;-70
2023/08/30 06:32:51;;;;;;;4.18;3.47;;;;;;;;;;5026639;28;21526;-69
2023/08/30 06:35:18;;;;;;;4.03;3.72;;;;;;;;;;5020096;28;20721;-71
2023/08/30 06:37:46;;;;;;;3.58;3.25;;;;;;;;;;5026678;28;20232;-69
2023/08/30 06:40:12;;;;;;;3.85;3.30;;;;;;;;;;5028169;28;20251;-70
2023/08/30 06:42:39;;;;;;;4.75;3.75;;;;;;;;;;5024549;28;20264;-70
2023/08/30 06:45:06;;;;;;;6.32;4.30;;;;;;;;;;5024750;28;20208;-72
2023/08/30 06:47:32;;;;;;;22.15;16.02;;;;;;;;;;5027779;28;20734;-71
2023/08/30 06:49:59;;;;;;;8.00;7.40;;;;;;;;;;5028113;28;20751;-69
2023/08/30 06:52:25;;;;;;;10.23;7.97;;;;;;;;;;5023183;28;20235;-69
2023/08/30 06:54:53;;;;;;;7.65;5.82;;;;;;;;;;5026461;28;20210;-70
2023/08/30 06:57:21;;;;;;;7.82;5.82;;;;;;;;;;5027702;28;20196;-69
2023/08/30 06:59:48;;;;;;;9.48;7.90;;;;;;;;;;5026653;28;20220;-67
2023/08/30 07:02:14;;;;;;;13.57;8.65;;;;;;;;;;5028045;28;20743;-67
2023/08/30 07:04:41;;;;;;;14.75;9.20;;;;;;;;;;5027922;28;20204;-67
2023/08/30 07:07:07;;;;;;;16.92;8.35;;;;;;;;;;5027938;28;20204;-68
2023/08/30 07:09:34;;;;;;;21.73;11.93;;;;;;;;;;5028813;28;20231;-68
2023/08/30 07:12:01;;;;;;;18.88;10.10;;;;;;;;;;5027843;28;20277;-68
2023/08/30 07:14:28;;;;;;;7.97;6.65;;;;;;;;;;5027028;28;20200;-67
2023/08/30 07:16:54;;;;;;;11.70;7.85;;;;;;;;;;5027522;28;20290;-71
2023/08/30 07:19:21;;;;;;;12.40;6.50;;;;;;;;;;5027810;28;20233;-70
2023/08/30 07:21:48;;;;;;;7.75;6.43;;;;;;;;;;5021925;28;20203;-69
2023/08/30 07:24:14;;;;;;;9.90;5.60;;;;;;;;;;5030433;28;20211;-69
2023/08/30 07:26:41;;;;;;;9.73;5.90;;;;;;;;;;5029115;28;20262;-69
2023/08/30 07:29:10;;;;;;;9.88;5.40;;;;;;;;;;5030304;28;20203;-70
2023/08/30 07:31:36;;;;;;;19.00;5.13;;;;;;;;;;5029529;28;20277;-70
2023/08/30 07:34:03;;;;;;;5.30;4.82;;;;;;;;;;5030387;28;20269;-70
2023/08/30 07:36:29;;;;;;;8.43;5.60;;;;;;;;;;5029808;28;20203;-70
2023/08/30 07:38:56;;;;;;;5.00;4.45;;;;;;;;;;5029956;28;20246;-69
2023/08/30 07:41:22;;;;;;;6.22;4.15;;;;;;;;;;5030860;28;20281;-70
2023/08/30 07:43:49;;;;;;;4.80;4.30;;;;;;;;;;5031260;28;20212;-70
2023/08/30 07:46:16;;;;;;;9.02;4.85;;;;;;;;;;5031190;28;20203;-70
2023/08/30 07:48:43;;;;;;;6.88;4.75;;;;;;;;;;5031241;28;20683;-69
2023/08/30 07:51:09;;;;;;;5.38;4.97;;;;;;;;;;5030907;28;20561;-69
2023/08/30 07:53:36;;;;;;;6.97;4.88;;;;;;;;;;5031005;28;20258;-68
2023/08/30 07:56:02;;;;;;;5.45;4.97;;;;;;;;;;5031450;28;20581;-69
2023/08/30 07:58:29;;;;;;;5.90;5.10;;;;;;;;;;5031289;28;20211;-69
2023/08/30 08:00:55;;;;;;;4.03;3.72;;;;;;;;;;5030389;28;20247;-69
2023/08/30 08:03:23;;;;;;;5.32;4.53;;;;;;;;;;5029878;28;20203;-67
2023/08/30 08:05:50;;;;;;;4.40;4.00;;;;;;;;;;5031373;28;20211;-68
2023/08/30 08:08:16;;;;;;;6.15;4.15;;;;;;;;;;5030181;28;20746;-69
2023/08/30 08:10:43;;;;;;;4.88;4.40;;;;;;;;;;5018844;28;20747;-67
2023/08/30 08:13:10;;;;;;;4.55;4.25;;;;;;;;;;5030952;28;20280;-68
2023/08/30 08:15:36;;;;;;;5.57;5.13;;;;;;;;;;5018653;28;20215;-69
2023/08/30 08:18:03;;;;;;;4.43;4.13;;;;;;;;;;5031053;28;20223;-70
2023/08/30 08:20:31;;;;;;;5.68;4.90;;;;;;;;;;5031119;28;20293;-69
2023/08/30 08:22:57;;;;;;;5.47;4.00;;;;;;;;;;5030916;28;20234;-69
2023/08/30 08:25:24;;;;;;;5.70;4.25;;;;;;;;;;5031077;28;20235;-69
2023/08/30 08:27:50;;;;;;;5.95;3.75;;;;;;;;;;5030806;28;20204;-69
2023/08/30 08:30:17;;;;;;;6.72;3.60;;;;;;;;;;5031156;28;20590;-69
2023/08/30 08:32:43;;;;;;;5.65;4.10;;;;;;;;;;5030422;28;20207;-69
2023/08/30 08:35:10;;;;;;;5.05;3.85;;;;;;;;;;5031179;28;20261;-69
2023/08/30 08:37:38;;;;;;;3.60;3.30;;;;;;;;;;5042554;28;20680;-69
2023/08/30 08:40:08;;;;;;;5.47;3.40;;;;;;;;;;5030711;28;20720;-69
2023/08/30 08:42:35;;;;;;;3.95;3.63;;;;;;;;;;5030549;28;20199;-70
2023/08/30 08:45:02;;;;;;;5.65;3.42;;;;;;;;;;5030462;28;20642;-69
2023/08/30 08:47:30;;;;;;;4.20;3.88;;;;;;;;;;5030429;28;20317;-70
2023/08/30 08:49:57;;;;;;;4.90;3.33;;;;;;;;;;5030680;28;20223;-69
2023/08/30 08:52:24;;;;;;;3.78;3.00;;;;;;;;;;5030016;28;20661;-69
2023/08/30 08:54:52;;;;;;;3.90;3.60;;;;;;;;;;5030706;28;20199;-69
2023/08/30 08:57:20;;;;;;;7.03;3.55;;;;;;;;;;5030433;28;20231;-70
2023/08/30 08:59:46;;;;;;;3.45;3.22;;;;;;;;;;5030474;28;20286;-70
2023/08/30 09:02:14;;;;;;;3.70;3.30;;;;;;;;;;5030290;28;20196;-68
2023/08/30 09:04:41;;;;;;;2.92;2.70;;;;;;;;;;5030199;28;20300;-69
2023/08/30 09:07:07;;;;;;;3.88;3.10;;;;;;;;;;5030134;28;20584;-69
2023/08/30 09:09:34;;;;;;;3.72;3.15;;;;;;;;;;5036435;28;20230;-70
2023/08/30 09:12:03;;;;;;;4.60;3.03;;;;;;;;;;5030602;28;20261;-69
2023/08/30 09:14:29;;;;;;;4.63;3.63;;;;;;;;;;5028404;28;20212;-69
2023/08/30 09:16:56;;;;;;;3.35;3.05;;;;;;;;;;5028301;28;20667;-69
2023/08/30 09:19:22;;;;;;;4.72;3.40;;;;;;;;;;5028083;28;20765;-69
2023/08/30 09:21:52;;;;;;;3.75;3.45;;;;;;;;;;5027682;28;20265;-69
2023/08/30 09:24:19;;;;;;;4.30;4.00;;;;;;;;;;5028303;28;20689;-71
2023/08/30 09:26:48;;;;;;;4.43;4.07;;;;;;;;;;5028455;28;20234;-68
2023/08/30 09:29:17;;;;;;;4.07;3.42;;;;;;;;;;5030094;28;20755;-68
2023/08/30 09:31:43;;;;;;;3.80;3.55;;;;;;;;;;5029630;28;20306;-68
2023/08/30 09:34:11;;;;;;;8.13;3.78;;;;;;;;;;5029801;28;20231;-68
2023/08/30 09:36:38;;;;;;;5.43;3.45;;;;;;;;;;5030052;28;20239;-68
2023/08/30 09:39:05;;;;;;;4.85;4.35;;;;;;;;;;5029915;28;20207;-69
2023/08/30 09:41:32;;;;;;;5.53;3.60;;;;;;;;;;5029450;28;20277;-68
2023/08/30 09:43:59;;;;;;;4.82;3.58;;;;;;;;;;5029880;28;20208;-68
2023/08/30 09:46:28;;;;;;;3.95;3.60;;;;;;;;;;5017857;28;20250;-67
2023/08/30 09:48:55;;;;;;;4.22;3.42;;;;;;;;;;5029261;28;20312;-68
2023/08/30 09:51:24;;;;;;;4.18;3.42;;;;;;;;;;5030015;28;20296;-68
2023/08/30 09:53:55;;;;;;;5.70;3.67;;;;;;;;;;5029376;28;20246;-68
2023/08/30 09:56:22;;;;;;;9.40;3.85;;;;;;;;;;5030463;28;20199;-68
2023/08/30 09:58:49;;;;;;;3.80;3.20;;;;;;;;;;5029494;28;20265;-68
2023/08/30 10:01:16;;;;;;;4.28;3.88;;;;;;;;;;5029727;28;20245;-68
2023/08/30 10:03:44;;;;;;;5.68;3.90;;;;;;;;;;5029411;28;20693;-68
2023/08/30 10:06:11;;;;;;;6.93;4.80;;;;;;;;;;5029981;28;20258;-68
2023/08/30 10:08:39;;;;;;;4.78;4.35;;;;;;;;;;5029670;28;20261;-68
2023/08/30 10:11:06;;;;;;;4.97;3.92;;;;;;;;;;5030021;28;20231;-68
2023/08/30 10:13:34;;;;;;;10.25;4.45;;;;;;;;;;5029422;28;20261;-68
2023/08/30 10:16:04;;;;;;;6.00;4.30;;;;;;;;;;5029626;28;20743;-68
2023/08/30 10:18:32;;;;;;;4.35;4.05;;;;;;;;;;5029463;28;20570;-68
2023/08/30 10:21:00;;;;;;;7.55;3.80;;;;;;;;;;5029855;28;20281;-69
2023/08/30 10:23:27;;;;;;;5.88;3.83;;;;;;;;;;5029353;28;20277;-67
2023/08/30 10:25:54;;;;;;;6.25;4.32;;;;;;;;;;5029818;28;20265;-67
2023/08/30 10:28:22;;;;;;;5.32;4.75;;;;;;;;;;5029090;28;20235;-68
2023/08/30 10:30:48;;;;;;;7.32;3.78;;;;;;;;;;5029582;28;20199;-68
2023/08/30 10:33:16;;;;;;;6.10;3.70;;;;;;;;;;5031872;28;20613;-68
2023/08/30 10:35:51;;;;;;;4.30;3.90;;;;;;;;;;5033006;28;20207;-67
2023/08/30 10:38:27;;;;;;;4.30;3.97;;;;;;;;;;5020733;28;20203;-67
2023/08/30 10:40:54;;;;;;;5.80;4.47;;;;;;;;;;5032733;28;20314;-68
2023/08/30 10:43:29;;;;;;;4.93;4.50;;;;;;;;;;5032742;28;20263;-69
2023/08/30 10:46:00;;;;;;;5.88;4.03;;;;;;;;;;5032508;28;20231;-68
2023/08/30 10:48:34;;;;;;;10.05;4.30;;;;;;;;;;5032556;28;20231;-68
2023/08/30 10:51:04;;;;;;;4.95;4.55;;;;;;;;;;5032297;28;20265;-68
2023/08/30 10:53:32;;;;;;;6.82;4.55;;;;;;;;;;5032688;28;20223;-69
2023/08/30 10:56:08;;;;;;;4.65;4.20;;;;;;;;;;5032250;28;20257;-68
2023/08/30 10:58:39;;;;;;;4.70;4.30;;;;;;;;;;5032412;28;20401;-68
2023/08/30 11:01:07;;;;;;;7.05;5.15;;;;;;;;;;5032264;28;20220;-68
2023/08/30 11:03:34;;;;;;;5.78;4.65;;;;;;;;;;5031966;28;20285;-68
2023/08/30 11:06:01;;;;;;;4.80;4.40;;;;;;;;;;5032541;28;20642;-68
2023/08/30 11:08:28;;;;;;;6.97;4.93;;;;;;;;;;5031438;28;20203;-69
2023/08/30 11:11:03;;;;;;;5.35;4.65;;;;;;;;;;5037448;28;20200;-68
2023/08/30 11:13:30;;;;;;;6.07;4.65;;;;;;;;;;5031490;28;20214;-68
2023/08/30 11:16:00;;;;;;;4.90;4.47;;;;;;;;;;5034075;28;20265;-68
2023/08/30 11:18:27;;;;;;;5.78;5.18;;;;;;;;;;5032443;28;20294;-68
2023/08/30 11:20:54;;;;;;;5.30;4.90;;;;;;;;;;5030292;28;20331;-69
2023/08/30 11:23:21;;;;;;;5.03;4.50;;;;;;;;;;5029911;28;20261;-68
2023/08/30 11:25:50;;;;;;;4.53;4.18;;;;;;;;;;5030604;28;20227;-69
2023/08/30 11:28:23;;;;;;;5.07;4.47;;;;;;;;;;5029949;28;20282;-69
2023/08/30 11:30:51;;;;;;;4.97;4.47;;;;;;;;;;5030575;28;20200;-67
2023/08/30 11:33:18;;;;;;;9.93;4.35;;;;;;;;;;5029958;28;20195;-67
2023/08/30 11:35:45;;;;;;;5.95;3.78;;;;;;;;;;5031753;28;20294;-68
2023/08/30 11:38:12;;;;;;;4.93;4.55;;;;;;;;;;5031058;28;20282;-68
2023/08/30 11:40:38;;;;;;;6.80;3.78;;;;;;;;;;5031954;28;20334;-67
2023/08/30 11:43:05;;;;;;;6.05;4.38;;;;;;;;;;5030447;28;20253;-68
2023/08/30 11:45:34;;;;;;;5.13;3.88;;;;;;;;;;5031946;28;20242;-68
2023/08/30 11:48:01;;;;;;;6.88;4.20;;;;;;;;;;5030829;28;20231;-67
2023/08/30 11:50:27;;;;;;;4.70;4.10;;;;;;;;;;5031622;28;20204;-68
2023/08/30 11:52:54;;;;;;;4.60;4.25;;;;;;;;;;5031735;28;20282;-68
2023/08/30 11:55:21;;;;;;;4.55;4.00;;;;;;;;;;5031245;28;20280;-69
2023/08/30 11:57:49;;;;;;;4.95;3.75;;;;;;;;;;5031412;28;20211;-68
2023/08/30 12:00:16;;;;;;;5.57;4.25;;;;;;;;;;5031248;28;20200;-68
2023/08/30 12:02:44;;;;;;;5.95;4.68;;;;;;;;;;5031189;28;20227;-69
2023/08/30 12:05:12;;;;;;;5.30;4.90;;;;;;;;;;5029096;28;20235;-67
2023/08/30 12:07:39;;;;;;;4.40;4.07;;;;;;;;;;5031661;28;20285;-69
2023/08/30 12:10:05;;;;;;;5.15;4.65;;;;;;;;;;5030899;28;20203;-68
2023/08/30 12:12:32;;;;;;;6.10;4.80;;;;;;;;;;5030862;28;20223;-69
2023/08/30 12:14:58;;;;;;;5.97;4.68;;;;;;;;;;5030969;28;20257;-69
2023/08/30 12:17:25;;;;;;;5.05;4.65;;;;;;;;;;5031160;28;20223;-67
2023/08/30 12:19:57;;;;;;;7.13;5.07;;;;;;;;;;5030537;28;20775;-68
2023/08/30 12:22:24;;;;;;;4.95;4.65;;;;;;;;;;5030994;28;20321;-67
2023/08/30 12:24:50;;;;;;;5.32;4.72;;;;;;;;;;5030616;28;20219;-68
2023/08/30 12:27:17;;;;;;;6.13;5.20;;;;;;;;;;5031098;28;20286;-67
2023/08/30 12:29:43;;;;;;;5.68;5.28;;;;;;;;;;5030333;28;20269;-68
2023/08/30 12:32:10;;;;;;;6.88;5.25;;;;;;;;;;5030989;28;20204;-68
2023/08/30 12:34:37;;;;;;;5.78;5.28;;;;;;;;;;5030494;28;20373;-68
2023/08/30 12:37:05;;;;;;;5.20;4.70;;;;;;;;;;5030920;28;20203;-68
2023/08/30 12:39:31;;;;;;;8.32;5.07;;;;;;;;;;5030130;28;20200;-69
2023/08/30 12:41:57;;;;;;;6.50;4.40;;;;;;;;;;5030926;28;20261;-68
2023/08/30 12:44:24;;;;;;;5.60;5.07;;;;;;;;;;5030901;28;20231;-68
2023/08/30 12:46:50;;;;;;;5.13;4.57;;;;;;;;;;5030560;28;20600;-68
2023/08/30 12:49:17;;;;;;;7.50;5.03;;;;;;;;;;5029822;28;20765;-68
2023/08/30 12:51:43;;;;;;;5.45;4.88;;;;;;;;;;5030110;28;20316;-67
2023/08/30 12:54:11;;;;;;;5.15;4.32;;;;;;;;;;5029403;28;20203;-67
2023/08/30 12:56:37;;;;;;;5.22;4.82;;;;;;;;;;5030241;28;20200;-67
2023/08/30 12:59:04;;;;;;;5.38;5.03;;;;;;;;;;5030349;28;20658;-68
2023/08/30 13:01:30;;;;;;;4.88;4.47;;;;;;;;;;5029679;28;20269;-67
2023/08/30 13:03:57;;;;;;;6.60;4.70;;;;;;;;;;5029957;28;20200;-67
2023/08/30 13:06:23;;;;;;;5.25;4.47;;;;;;;;;;5030467;28;20238;-68
2023/08/30 13:08:49;;;;;;;4.93;4.55;;;;;;;;;;5029971;28;20257;-68
2023/08/30 13:11:17;;;;;;;9.95;5.15;;;;;;;;;;5029981;28;20284;-68
2023/08/30 13:13:44;;;;;;;5.63;4.68;;;;;;;;;;5029456;28;20203;-68
2023/08/30 13:16:10;;;;;;;8.73;4.75;;;;;;;;;;5026661;28;20867;-67
2023/08/30 13:18:37;;;;;;;9.07;5.28;;;;;;;;;;5026877;28;20600;-68
2023/08/30 13:21:04;;;;;;;5.18;4.78;;;;;;;;;;5028602;28;20469;-68
2023/08/30 13:23:30;;;;;;;8.25;4.55;;;;;;;;;;5028031;28;20294;-68
2023/08/30 13:25:57;;;;;;;4.65;4.35;;;;;;;;;;5028464;28;20199;-69
2023/08/30 13:28:25;;;;;;;4.70;4.30;;;;;;;;;;5028237;28;20234;-68
2023/08/30 13:30:51;;;;;;;10.90;9.85;;;;;;;;;;5028337;28;20666;-69
2023/08/30 13:33:17;;;;;;;4.85;4.45;;;;;;;;;;5027985;28;20237;-68
2023/08/30 13:35:44;;;;;;;4.95;4.40;;;;;;;;;;5028634;28;20687;-68
2023/08/30 13:38:10;;;;;;;3.97;3.60;;;;;;;;;;5028498;28;20280;-68
2023/08/30 13:40:37;;;;;;;4.57;4.18;;;;;;;;;;5030564;28;20206;-68
2023/08/30 13:43:04;;;;;;;7.15;4.13;;;;;;;;;;5029444;28;20251;-68
2023/08/30 13:45:31;;;;;;;6.18;3.75;;;;;;;;;;5030543;28;20298;-68
2023/08/30 13:47:59;;;;;;;4.50;4.20;;;;;;;;;;5028432;28;20724;-68
2023/08/30 13:50:30;;;;;;;5.50;4.20;;;;;;;;;;5029955;28;20208;-67
2023/08/30 13:52:56;;;;;;;5.30;3.97;;;;;;;;;;5028703;28;21482;-68
2023/08/30 13:55:23;;;;;;;4.72;4.32;;;;;;;;;;5029552;28;20288;-67
2023/08/30 13:57:50;;;;;;;7.25;4.57;;;;;;;;;;5029567;28;20231;-68
2023/08/30 14:00:16;;;;;;;6.68;5.10;;;;;;;;;;5029523;28;20207;-68
2023/08/30 14:02:44;;;;;;;4.88;4.47;;;;;;;;;;5029533;28;20681;-68
2023/08/30 14:05:11;;;;;;;6.03;4.18;;;;;;;;;;5029238;28;20210;-68
2023/08/30 14:07:37;;;;;;;5.93;4.22;;;;;;;;;;5031686;28;20293;-68
2023/08/30 14:10:04;;;;;;;4.80;3.83;;;;;;;;;;5033469;28;20261;-68
2023/08/30 14:12:30;;;;;;;4.93;3.92;;;;;;;;;;5033207;28;20199;-69
2023/08/30 14:14:57;;;;;;;4.50;4.20;;;;;;;;;;5032972;28;20200;-68
2023/08/30 14:17:23;;;;;;;4.20;3.80;;;;;;;;;;5033226;28;20685;-68
2023/08/30 14:19:51;;;;;;;4.38;4.07;;;;;;;;;;5033067;28;20239;-69
2023/08/30 14:22:17;;;;;;;3.58;3.38;;;;;;;;;;5033463;28;20223;-66
2023/08/30 14:24:44;;;;;;;4.22;3.53;;;;;;;;;;5032769;28;20690;-68
2023/08/30 14:27:10;;;;;;;5.40;3.67;;;;;;;;;;5033690;28;20207;-68
2023/08/30 14:29:36;;;;;;;4.07;3.70;;;;;;;;;;5033388;28;20208;-67
2023/08/30 14:32:03;;;;;;;4.28;3.30;;;;;;;;;;5033636;28;20231;-68
2023/08/30 14:34:30;;;;;;;3.92;3.60;;;;;;;;;;5032943;28;20204;-67
2023/08/30 14:36:58;;;;;;;3.97;3.67;;;;;;;;;;5033109;28;20242;-69
2023/08/30 14:39:24;;;;;;;3.17;2.90;;;;;;;;;;5032983;28;20253;-67